Flight Track Log - Related Links

Times and Time Zones

All times are in EDT time to prevent confusion due to time zone crossing. See the TRS384 flight status page for this flight to view local times or setup timezone preferences in your user account.

Time Position Orientation Groundspeed Altitude Reporting Facility
EDT Latitude Longitude Course Direction KTS MPH feet Rate Location/Type
Fri 10:32:30 AM 38.7167 -90.3000 130° Southeast 186 214 2,200  Level Gateway (St. Louis) TRACON
Fri 10:33:30 AM 38.6833 -90.2500 125° Southeast 250 288 3,700 1,696 Climbing Gateway (St. Louis) TRACON
Fri 10:34:48 AM 38.6197 -90.1600 132° Southeast 280 322 6,100 2,255 Climbing Kansas City Center
Fri 10:35:51 AM 38.5558 -90.0661 131° Southeast 289 333 9,000 2,419 Climbing Kansas City Center
Fri 10:36:52 AM 38.4981 -89.9828 132° Southeast 299 344 11,100 1,623 Climbing Kansas City Center
Fri 10:37:53 AM 38.4372 -89.8903 130° Southeast 346 398 12,300 1,306 Climbing Kansas City Center
Fri 10:38:56 AM 38.3639 -89.7794 130° Southeast 379 436 13,800 1,548 Climbing Kansas City Center
Fri 10:39:57 AM 38.2997 -89.6825 130° Southeast 394 453 15,500 1,659 Climbing Kansas City Center
Fri 10:40:59 AM 38.2256 -89.5736 131° Southeast 403 464 17,200 1,756 Climbing Kansas City Center
Fri 10:42:00 AM 38.1500 -89.4625 131° Southeast 415 478 19,100 1,672 Climbing Kansas City Center
Fri 10:43:01 AM 38.0706 -89.3453 131° Southeast 436 502 20,600 1,680 Climbing Kansas City Center
Fri 10:44:05 AM 37.9703 -89.1994 131° Southeast 455 524 22,600 1,632 Climbing Kansas City Center
Fri 10:45:06 AM 37.8861 -89.0742 130° Southeast 466 536 24,000 1,525 Climbing Kansas City Center
Fri 10:46:07 AM 37.8064 -88.9578 131° Southeast 473 544 25,700 1,475 Climbing Kansas City Center
Fri 10:47:08 AM 37.7172 -88.8300 131° Southeast 476 548 27,000 639 Climbing Kansas City Center
Fri 10:48:09 AM 37.6106 -88.6856 133° Southeast 478 550 27,000  Level Memphis Center
Fri 10:49:11 AM 37.5222 -88.5611 132° Southeast 478 550 27,000  Level Memphis Center
Fri 10:50:13 AM 37.4342 -88.4375 132° Southeast 477 549 27,000  Level Memphis Center
Fri 10:51:15 AM 37.3453 -88.3158 133° Southeast 475 547 27,000  Level Memphis Center
Fri 10:52:17 AM 37.2567 -88.1919 132° Southeast 475 547 27,000  Level Memphis Center
Fri 10:53:19 AM 37.1553 -88.0528 132° Southeast 474 545 27,000  Level Memphis Center
Fri 10:54:21 AM 37.0664 -87.9306 132° Southeast 472 543 27,000  Level Memphis Center
Fri 10:55:23 AM 36.9781 -87.8100 133° Southeast 471 542 27,000  Level Memphis Center
Fri 10:56:25 AM 36.8953 -87.6822 129° Southeast 470 541 27,000  Level Memphis Center
Fri 10:57:27 AM 36.8314 -87.5378 119° Southeast 470 541 27,000  Level Memphis Center
Fri 10:58:29 AM 36.7656 -87.3950 120° Southeast 470 541 27,000  Level Memphis Center
Fri 10:59:31 AM 36.7003 -87.2528 120° Southeast 470 541 27,000  Level Memphis Center
Fri 11:00:35 AM 36.6225 -87.0875 120° Southeast 470 541 27,000  Level Memphis Center
Fri 11:01:37 AM 36.5564 -86.9461 120° Southeast 469 540 27,000  Level Memphis Center
Fri 11:02:39 AM 36.4908 -86.8033 120° Southeast 468 539 27,000  Level Memphis Center
Fri 11:03:41 AM 36.4217 -86.6608 121° Southeast 468 539 27,000  Level Memphis Center
Fri 11:04:43 AM 36.3542 -86.5214 121° Southeast 467 537 27,000  Level Memphis Center
Fri 11:05:45 AM 36.2875 -86.3817 121° Southeast 465 535 27,000  Level Memphis Center
Fri 11:06:47 AM 36.2200 -86.2414 121° Southeast 466 536 27,000  Level Memphis Center
Fri 11:07:49 AM 36.1528 -86.1025 121° Southeast 466 536 27,000  Level Memphis Center
Fri 11:08:51 AM 36.0889 -85.9597 119° Southeast 467 537 27,000  Level Memphis Center
Fri 11:09:53 AM 36.0256 -85.8089 117° Southeast 467 537 27,000  Level Memphis Center
Fri 11:10:55 AM 35.9300 -85.7078 139° Southeast 465 535 27,000  Level Memphis Center
Fri 11:11:57 AM 35.8161 -85.6406 154° Southeast 459 528 27,000  Level Memphis Center
Fri 11:12:59 AM 35.6697 -85.6606 186° South 444 511 27,000  Level Memphis Center
Fri 11:14:01 AM 35.5497 -85.6947 193° South 443 510 27,000  Level Memphis Center
Fri 11:15:03 AM 35.4281 -85.6658 169° South 455 524 27,000  Level Memphis Center
Fri 11:16:05 AM 35.3092 -85.6078 158° South 458 527 27,000  Level Memphis Center
Fri 11:17:07 AM 35.1917 -85.5494 158° South 458 527 27,000  Level Memphis Center
Fri 11:18:09 AM 35.0500 -85.4819 159° South 458 527 27,000  Level Memphis Center
Fri 11:19:11 AM 34.9314 -85.4244 158° South 458 527 27,000  Level Memphis Center
Fri 11:20:11 AM 34.8097 -85.3669 159° South 458 527 27,000 -350 Level Atlanta Center
Fri 11:21:11 AM 34.6956 -85.3119 158° South 458 527 26,300 -1,350 Descending Atlanta Center
Fri 11:22:11 AM 34.5772 -85.2547 158° South 458 527 24,300 -2,200 Descending Atlanta Center
Fri 11:23:11 AM 34.4650 -85.2003 158° South 451 519 21,900 -2,350 Descending Atlanta Center
Fri 11:24:11 AM 34.3550 -85.1508 160° South 439 505 19,600 -2,300 Descending Atlanta Center
Fri 11:25:11 AM 34.2447 -85.0967 158° South 429 494 17,300 -2,250 Descending Atlanta Center
Fri 11:26:11 AM 34.1367 -85.0478 159° South 429 494 15,100 -1,650 Descending Atlanta Center
Fri 11:27:11 AM 34.0475 -84.9739 146° Southeast 393 452 14,000 -750 Descending Atlanta Center
Fri 11:28:11 AM 33.9731 -84.8806 134° Southeast 393 452 13,600 -600 Descending Atlanta Center
Fri 11:29:11 AM 33.8983 -84.7847 133° Southeast 388 447 12,800 -903 Descending Atlanta Center
Fri 11:30:04 AM 33.8333 -84.7000 133° Southeast 380 437 11,900 -425 Descending Atlanta TRACON
Fri 11:31:04 AM 33.7667 -84.6167 134° Southeast 308 354 12,000  Climbing Atlanta TRACON
Fri 11:32:10 AM 33.7333 -84.5333 116° Southeast 275 316 11,900 -1,050 Descending Atlanta TRACON
Fri 11:33:04 AM 33.7333 -84.4500 90° East 282 325 9,900 -2,421 Descending Atlanta TRACON
Fri 11:34:04 AM 33.7333 -84.3667 90° East 266 306 7,300 -2,300 Descending Atlanta TRACON
Fri 11:35:04 AM 33.7333 -84.2833 90° East 252 290 5,300 -1,800 Descending Atlanta TRACON
Fri 11:36:04 AM 33.7333 -84.2000 90° East 243 280 3,700 -1,150 Descending Atlanta TRACON
Fri 11:37:04 AM 33.6833 -84.1833 164° South 191 220 3,000 -350 Descending Atlanta TRACON
Fri 11:38:04 AM 33.6500 -84.2333 231° Southwest 177 204 3,000 -100 Level Atlanta TRACON
Fri 11:39:04 AM 33.6500 -84.2833 270° West 173 199 2,800 -474 Descending Atlanta TRACON
Fri 11:39:58 AM 33.6500 -84.3333 270° West 153 176 2,100 -750 Descending Atlanta TRACON
Fri 11:41:04 AM 33.6500 -84.4000 270° West 145 167 1,300 -727 Descending Atlanta TRACON
Fri 11:43:00 AM 33.6333 -84.4167 241° Southwest  Level FlightAware Approximate

Login

Don't have an account? Register now (free) for customized features, flight alerts, and more!